Список аэропортов
Фактическая погода:

26 июня, 23:00
Температура: +27°C (+27.0*)
Ветер: сев.-восточный 5 м/с
Давление: *760 мм
Без существ. явл.
Время (МСК)Темп. СВетерВлажностьДавлениеОблачностьОсадки
21:00+30С, 4 м/с39%1014 гПамалооблачно
22:00+29С, 5 м/с40%1014 гПамалооблачно
23:00+28С, 6 м/с40%1014 гПаясно
27 июня
00:00+27С, 5 м/с40%1014 гПаясно
01:00+27С, 5 м/с41%1014 гПамалооблачно
02:00+26С, 5 м/с42%1014 гПас прояснениями
03:00+25С, 5 м/с45%1014 гПамалооблачно
04:00+24С, 4 м/с48%1013 гПаясно
05:00+23С, 3 м/с50%1013 гПамалооблачно
06:00+23С, 2 м/с49%1013 гПамалооблачно
07:00+24С, 3 м/с44%1013 гПамалооблачно
08:00+25С, 3 м/с39%1013 гПамалооблачно
09:00+27С, 2 м/с35%1012 гПамалооблачно
10:00+28С, 2 м/с32%1012 гПаясно
11:00+30С, 2 м/с29%1011 гПаясно
12:00+32С, 3 м/с26%1011 гПаясно
13:00+33С, 4 м/с25%1010 гПаясно
14:00+34СЗ, 3 м/с25%1009 гПаясно
15:00+34СЗ, 2 м/с24%1008 гПаясно
16:00+34СЗ, 2 м/с24%1008 гПаясно
17:00+34СЗ, 2 м/с23%1007 гПаясно
18:00+34СЗ, 2 м/с23%1006 гПаясно
19:00+33СЗ, 2 м/с24%1006 гПаясно
20:00+32СЗ, 3 м/с26%1006 гПаясно
21:00+29СЗ, 7 м/с26%1006 гПаясно
22:00+28СЗ, 6 м/с28%1007 гПаясно
23:00+26З, 4 м/с30%1006 гПаясно
28 июня
00:00+25З, 3 м/с33%1006 гПаясно
01:00+24З, 2 м/с38%1006 гПаясно
02:00+23ЮЗ, 2 м/с40%1006 гПаясно
03:00+23Ю, 2 м/с47%1005 гПаясно
04:00+22Ю, 3 м/с54%1005 гПаясно
05:00+22Ю, 3 м/с57%1005 гПаясно
06:00+22Ю, 3 м/с53%1005 гПаясно
07:00+23Ю, 3 м/с43%1004 гПаясно
08:00+26Ю, 3 м/с36%1004 гПаясно
09:00+28ЮЗ, 3 м/с36%1003 гПаясно
10:00+29ЮЗ, 5 м/с33%1003 гПаясно
11:00+30ЮЗ, 6 м/с32%1002 гПаясно
12:00+31ЮЗ, 6 м/с32%1001 гПаясно
13:00+32ЮЗ, 7 м/с30%1001 гПамалооблачно
14:00+32ЮЗ, 8 м/с30%1000 гПаоблачно
15:00+32ЮЗ, 7 м/с27%1000 гПаоблачносл. дождь
16:00+31З, 8 м/с41%1000 гПас прояснениямидождь
17:00+28З, 7 м/с50%1001 гПас прояснениями
18:00+27СЗ, 7 м/с43%1002 гПаоблачно
19:00+25СЗ, 6 м/с48%1002 гПаоблачно
20:00+25З, 5 м/с54%1003 гПаоблачно
21:00+24З, 5 м/с58%1003 гПаоблачно